sensor_id;sensor_type;location;lat;lon;timestamp;pressure;altitude;pressure_sealevel;temperature;humidity
46638;BME280;32365;46.938;7.390;2023-05-20T08:56:54;95017.75;;;14.49;72.75
46638;BME280;32365;46.938;7.390;2023-05-20T08:59:21;95019.03;;;14.15;71.70
46638;BME280;32365;46.938;7.390;2023-05-20T09:01:48;95013.53;;;14.01;71.21
46638;BME280;32365;46.938;7.390;2023-05-20T09:04:14;95012.97;;;13.83;71.74
46638;BME280;32365;46.938;7.390;2023-05-20T09:06:42;95010.19;;;14.78;69.38
46638;BME280;32365;46.938;7.390;2023-05-20T09:09:09;95027.06;;;15.17;69.40
46638;BME280;32365;46.938;7.390;2023-05-20T09:11:36;95018.06;;;15.49;67.11
46638;BME280;32365;46.938;7.390;2023-05-20T09:14:04;95023.13;;;15.19;66.53
46638;BME280;32365;46.938;7.390;2023-05-20T09:16:30;95010.97;;;14.78;67.66
46638;BME280;32365;46.938;7.390;2023-05-20T09:18:57;95005.25;;;14.45;70.31
46638;BME280;32365;46.938;7.390;2023-05-20T09:21:25;94998.97;;;14.88;67.38
46638;BME280;32365;46.938;7.390;2023-05-20T09:23:52;94997.97;;;14.37;69.97
46638;BME280;32365;46.938;7.390;2023-05-20T09:26:21;95007.56;;;14.62;69.09
46638;BME280;32365;46.938;7.390;2023-05-20T09:28:49;95011.13;;;13.74;73.14
46638;BME280;32365;46.938;7.390;2023-05-20T09:31:17;95019.38;;;13.45;74.44
46638;BME280;32365;46.938;7.390;2023-05-20T09:33:44;95016.03;;;13.06;74.54
46638;BME280;32365;46.938;7.390;2023-05-20T09:36:11;95017.72;;;13.33;74.71
46638;BME280;32365;46.938;7.390;2023-05-20T09:38:39;95015.03;;;13.71;73.34
46638;BME280;32365;46.938;7.390;2023-05-20T09:41:08;95017.94;;;13.95;72.43
46638;BME280;32365;46.938;7.390;2023-05-20T09:43:35;95022.09;;;13.91;72.91
46638;BME280;32365;46.938;7.390;2023-05-20T09:46:03;95018.09;;;13.58;73.18
46638;BME280;32365;46.938;7.390;2023-05-20T09:48:31;95015.06;;;13.92;71.99
46638;BME280;32365;46.938;7.390;2023-05-20T09:50:58;95015.38;;;14.47;69.96
46638;BME280;32365;46.938;7.390;2023-05-20T09:53:26;95012.00;;;14.10;71.61
46638;BME280;32365;46.938;7.390;2023-05-20T09:55:54;95021.03;;;13.87;72.02
46638;BME280;32365;46.938;7.390;2023-05-20T09:58:21;95006.13;;;13.57;72.56
46638;BME280;32365;46.938;7.390;2023-05-20T10:00:48;95015.03;;;13.71;73.41
46638;BME280;32365;46.938;7.390;2023-05-20T10:03:14;95014.84;;;13.93;72.38
46638;BME280;32365;46.938;7.390;2023-05-20T10:05:49;95021.28;;;13.75;73.05
46638;BME280;32365;46.938;7.390;2023-05-20T10:08:28;95014.94;;;13.40;74.50
46638;BME280;32365;46.938;7.390;2023-05-20T10:11:06;95018.13;;;13.63;73.37
46638;BME280;32365;46.938;7.390;2023-05-20T10:13:49;95016.91;;;13.91;73.96
46638;BME280;32365;46.938;7.390;2023-05-20T10:16:28;95013.28;;;14.13;72.51
46638;BME280;32365;46.938;7.390;2023-05-20T10:19:03;95009.66;;;14.45;70.69
46638;BME280;32365;46.938;7.390;2023-05-20T10:21:32;95008.88;;;14.39;70.12
46638;BME280;32365;46.938;7.390;2023-05-20T10:24:05;95013.81;;;14.25;70.98
46638;BME280;32365;46.938;7.390;2023-05-20T10:26:34;95013.56;;;14.22;71.49
46638;BME280;32365;46.938;7.390;2023-05-20T10:29:01;95014.75;;;13.73;73.28
46638;BME280;32365;46.938;7.390;2023-05-20T10:31:43;95011.56;;;13.50;74.19
46638;BME280;32365;46.938;7.390;2023-05-20T10:34:13;95013.28;;;13.29;74.92
46638;BME280;32365;46.938;7.390;2023-05-20T10:36:44;95016.84;;;13.65;73.62
46638;BME280;32365;46.938;7.390;2023-05-20T10:39:14;95022.66;;;14.09;71.37
46638;BME280;32365;46.938;7.390;2023-05-20T10:41:41;95022.41;;;14.26;71.16
46638;BME280;32365;46.938;7.390;2023-05-20T10:44:08;95015.84;;;13.87;72.16
46638;BME280;32365;46.938;7.390;2023-05-20T10:46:34;95022.13;;;14.12;72.10
46638;BME280;32365;46.938;7.390;2023-05-20T10:49:01;95023.91;;;13.91;72.90
46638;BME280;32365;46.938;7.390;2023-05-20T10:51:29;95026.28;;;14.03;71.12
46638;BME280;32365;46.938;7.390;2023-05-20T10:53:58;95019.72;;;13.74;71.80
46638;BME280;32365;46.938;7.390;2023-05-20T10:56:25;95008.53;;;13.79;72.53
46638;BME280;32365;46.938;7.390;2023-05-20T10:58:53;95010.16;;;14.11;71.31
46638;BME280;32365;46.938;7.390;2023-05-20T11:01:23;95006.78;;;14.26;71.44
46638;BME280;32365;46.938;7.390;2023-05-20T11:03:50;95008.88;;;14.55;69.58
46638;BME280;32365;46.938;7.390;2023-05-20T11:06:17;95010.19;;;14.62;69.39
46638;BME280;32365;46.938;7.390;2023-05-20T11:08:44;95008.63;;;14.67;70.08
46638;BME280;32365;46.938;7.390;2023-05-20T11:11:13;95006.03;;;14.77;69.09
46638;BME280;32365;46.938;7.390;2023-05-20T11:13:40;95001.84;;;14.86;69.72
46638;BME280;32365;46.938;7.390;2023-05-20T11:16:07;94998.19;;;14.87;65.98
46638;BME280;32365;46.938;7.390;2023-05-20T11:18:34;95004.72;;;14.80;67.38
46638;BME280;32365;46.938;7.390;2023-05-20T11:21:01;95008.22;;;15.41;66.53
46638;BME280;32365;46.938;7.390;2023-05-20T11:23:28;95009.56;;;15.22;67.01
46638;BME280;32365;46.938;7.390;2023-05-20T11:25:56;95004.91;;;15.09;67.80
46638;BME280;32365;46.938;7.390;2023-05-20T11:28:24;95005.50;;;14.90;67.50
46638;BME280;32365;46.938;7.390;2023-05-20T11:30:51;95003.09;;;14.99;68.36
46638;BME280;32365;46.938;7.390;2023-05-20T11:33:18;94994.72;;;15.18;68.02
46638;BME280;32365;46.938;7.390;2023-05-20T11:35:46;94989.84;;;14.59;69.50
46638;BME280;32365;46.938;7.390;2023-05-20T11:38:13;94992.22;;;14.71;68.86
46638;BME280;32365;46.938;7.390;2023-05-20T11:40:42;94994.81;;;14.30;71.40
46638;BME280;32365;46.938;7.390;2023-05-20T11:43:10;94998.69;;;14.01;71.55
46638;BME280;32365;46.938;7.390;2023-05-20T11:45:39;94990.13;;;14.06;71.95
46638;BME280;32365;46.938;7.390;2023-05-20T11:48:07;94992.72;;;14.16;72.56
46638;BME280;32365;46.938;7.390;2023-05-20T11:50:34;94993.22;;;14.13;71.08
46638;BME280;32365;46.938;7.390;2023-05-20T11:53:04;94994.81;;;14.14;71.06
46638;BME280;32365;46.938;7.390;2023-05-20T11:55:31;94980.50;;;14.22;70.70
46638;BME280;32365;46.938;7.390;2023-05-20T11:57:59;94978.69;;;14.12;70.94
46638;BME280;32365;46.938;7.390;2023-05-20T12:00:26;94977.91;;;14.38;70.36
46638;BME280;32365;46.938;7.390;2023-05-20T12:02:53;94979.44;;;14.44;69.15
46638;BME280;32365;46.938;7.390;2023-05-20T12:05:21;94979.72;;;14.68;70.13
46638;BME280;32365;46.938;7.390;2023-05-20T12:07:47;94972.94;;;14.57;68.53
46638;BME280;32365;46.938;7.390;2023-05-20T12:10:13;94976.84;;;14.44;69.87
46638;BME280;32365;46.938;7.390;2023-05-20T12:12:40;94975.28;;;14.79;67.86
46638;BME280;32365;46.938;7.390;2023-05-20T12:15:09;94978.13;;;14.62;68.31
46638;BME280;32365;46.938;7.390;2023-05-20T12:17:44;94989.34;;;14.73;69.33
46638;BME280;32365;46.938;7.390;2023-05-20T12:20:13;94983.63;;;14.40;70.31
46638;BME280;32365;46.938;7.390;2023-05-20T12:22:41;94981.53;;;14.52;72.32
46638;BME280;32365;46.938;7.390;2023-05-20T12:25:09;94989.34;;;14.47;70.92
46638;BME280;32365;46.938;7.390;2023-05-20T12:27:36;94992.22;;;14.35;70.33
46638;BME280;32365;46.938;7.390;2023-05-20T12:30:03;94994.56;;;14.52;69.83
46638;BME280;32365;46.938;7.390;2023-05-20T12:32:29;94983.34;;;14.57;69.35
46638;BME280;32365;46.938;7.390;2023-05-20T12:34:56;94978.38;;;14.86;68.77
46638;BME280;32365;46.938;7.390;2023-05-20T12:37:24;94978.66;;;14.74;69.36
46638;BME280;32365;46.938;7.390;2023-05-20T12:39:51;94974.50;;;14.78;70.39
46638;BME280;32365;46.938;7.390;2023-05-20T12:42:17;94979.94;;;14.82;71.29
46638;BME280;32365;46.938;7.390;2023-05-20T12:44:44;94968.38;;;15.24;69.09
46638;BME280;32365;46.938;7.390;2023-05-20T12:47:10;94962.91;;;15.21;70.83
46638;BME280;32365;46.938;7.390;2023-05-20T12:49:37;94964.16;;;15.29;68.67
46638;BME280;32365;46.938;7.390;2023-05-20T12:52:03;94967.06;;;15.27;66.75
46638;BME280;32365;46.938;7.390;2023-05-20T12:54:32;94971.47;;;15.32;69.63
46638;BME280;32365;46.938;7.390;2023-05-20T12:56:58;94960.06;;;15.07;68.96
46638;BME280;32365;46.938;7.390;2023-05-20T12:59:25;94964.00;;;14.99;69.01
46638;BME280;32365;46.938;7.390;2023-05-20T13:01:51;94966.13;;;14.87;69.22
46638;BME280;32365;46.938;7.390;2023-05-20T13:04:17;94968.22;;;14.95;69.81
46638;BME280;32365;46.938;7.390;2023-05-20T13:06:44;94970.03;;;14.89;70.14
46638;BME280;32365;46.938;7.390;2023-05-20T13:09:10;94969.00;;;14.80;68.71
46638;BME280;32365;46.938;7.390;2023-05-20T13:11:38;94968.50;;;14.68;68.88
46638;BME280;32365;46.938;7.390;2023-05-20T13:14:05;94973.72;;;14.78;70.31
46638;BME280;32365;46.938;7.390;2023-05-20T13:16:31;94973.69;;;14.57;71.12
46638;BME280;32365;46.938;7.390;2023-05-20T13:18:58;94980.22;;;14.50;71.26
46638;BME280;32365;46.938;7.390;2023-05-20T13:21:24;94969.31;;;14.37;71.96
46638;BME280;32365;46.938;7.390;2023-05-20T13:23:51;94968.50;;;14.57;69.66
46638;BME280;32365;46.938;7.390;2023-05-20T13:26:17;94974.25;;;14.54;72.12
46638;BME280;32365;46.938;7.390;2023-05-20T13:28:45;94974.75;;;14.46;70.85
46638;BME280;32365;46.938;7.390;2023-05-20T13:31:12;94974.75;;;14.36;70.95
46638;BME280;32365;46.938;7.390;2023-05-20T13:33:38;94979.47;;;14.54;72.90
46638;BME280;32365;46.938;7.390;2023-05-20T13:36:05;94978.66;;;14.28;71.73
46638;BME280;32365;46.938;7.390;2023-05-20T13:38:32;94971.13;;;14.42;74.04
46638;BME280;32365;46.938;7.390;2023-05-20T13:40:58;94966.69;;;14.42;74.27
46638;BME280;32365;46.938;7.390;2023-05-20T13:43:25;94969.25;;;14.63;73.72
46638;BME280;32365;46.938;7.390;2023-05-20T13:45:54;94973.09;;;15.07;71.66
46638;BME280;32365;46.938;7.390;2023-05-20T13:48:20;94967.88;;;15.12;72.80
46638;BME280;32365;46.938;7.390;2023-05-20T13:50:47;94971.59;;;14.96;72.84
46638;BME280;32365;46.938;7.390;2023-05-20T13:53:13;94970.09;;;14.53;73.85
46638;BME280;32365;46.938;7.390;2023-05-20T13:55:40;94963.28;;;14.57;74.38
46638;BME280;32365;46.938;7.390;2023-05-20T13:58:06;94972.41;;;14.75;74.86
46638;BME280;32365;46.938;7.390;2023-05-20T14:00:34;94977.34;;;14.67;73.96
46638;BME280;32365;46.938;7.390;2023-05-20T14:03:02;94980.75;;;14.67;73.82
46638;BME280;32365;46.938;7.390;2023-05-20T14:05:29;94979.19;;;14.56;74.20
46638;BME280;32365;46.938;7.390;2023-05-20T14:07:56;94972.91;;;14.62;74.00
46638;BME280;32365;46.938;7.390;2023-05-20T14:10:23;94970.06;;;14.74;73.36
46638;BME280;32365;46.938;7.390;2023-05-20T14:12:50;94971.88;;;14.73;73.80
46638;BME280;32365;46.938;7.390;2023-05-20T14:15:17;94964.09;;;14.58;73.65
46638;BME280;32365;46.938;7.390;2023-05-20T14:17:43;94967.72;;;14.77;73.03
46638;BME280;32365;46.938;7.390;2023-05-20T14:20:12;94969.50;;;15.03;74.81
46638;BME280;32365;46.938;7.390;2023-05-20T14:22:38;94960.94;;;14.56;76.05
46638;BME280;32365;46.938;7.390;2023-05-20T14:25:05;94958.34;;;14.51;75.42
46638;BME280;32365;46.938;7.390;2023-05-20T14:27:32;94962.53;;;14.46;76.58
46638;BME280;32365;46.938;7.390;2023-05-20T14:29:59;94960.94;;;14.66;75.18
46638;BME280;32365;46.938;7.390;2023-05-20T14:32:26;94958.84;;;14.73;74.95
46638;BME280;32365;46.938;7.390;2023-05-20T14:34:53;94955.25;;;14.49;74.77
46638;BME280;32365;46.938;7.390;2023-05-20T14:37:20;94944.31;;;14.46;74.26
46638;BME280;32365;46.938;7.390;2023-05-20T14:39:47;94943.72;;;14.96;73.49
46638;BME280;32365;46.938;7.390;2023-05-20T14:42:13;94951.94;;;15.24;73.00
46638;BME280;32365;46.938;7.390;2023-05-20T14:44:40;94948.31;;;15.15;74.19
46638;BME280;32365;46.938;7.390;2023-05-20T14:47:07;94952.06;;;14.88;74.31
46638;BME280;32365;46.938;7.390;2023-05-20T14:49:34;94946.00;;;15.13;75.61
46638;BME280;32365;46.938;7.390;2023-05-20T14:52:03;94948.91;;;14.96;73.99
46638;BME280;32365;46.938;7.390;2023-05-20T14:54:33;94949.72;;;14.81;74.17
46638;BME280;32365;46.938;7.390;2023-05-20T14:56:59;94945.00;;;14.93;75.27
46638;BME280;32365;46.938;7.390;2023-05-20T14:59:26;94955.75;;;14.71;77.28
46638;BME280;32365;46.938;7.390;2023-05-20T15:01:52;94959.13;;;14.67;76.54
46638;BME280;32365;46.938;7.390;2023-05-20T15:04:19;94946.38;;;14.70;76.45
46638;BME280;32365;46.938;7.390;2023-05-20T15:06:45;94951.31;;;14.72;77.05
46638;BME280;32365;46.938;7.390;2023-05-20T15:09:12;94950.78;;;14.65;76.56
46638;BME280;32365;46.938;7.390;2023-05-20T15:11:40;94958.09;;;14.68;76.58
46638;BME280;32365;46.938;7.390;2023-05-20T15:14:06;94957.03;;;14.58;77.40
46638;BME280;32365;46.938;7.390;2023-05-20T15:16:33;94963.03;;;14.80;76.34
46638;BME280;32365;46.938;7.390;2023-05-20T15:18:59;94967.19;;;14.65;77.68
46638;BME280;32365;46.938;7.390;2023-05-20T15:21:26;94976.84;;;14.75;77.42
46638;BME280;32365;46.938;7.390;2023-05-20T15:23:52;94972.91;;;14.88;77.71
46638;BME280;32365;46.938;7.390;2023-05-20T15:26:19;94966.84;;;15.08;77.19
46638;BME280;32365;46.938;7.390;2023-05-20T15:28:47;94956.00;;;14.70;77.11
46638;BME280;32365;46.938;7.390;2023-05-20T15:31:13;94958.84;;;14.63;76.92
46638;BME280;32365;46.938;7.390;2023-05-20T15:33:40;94956.78;;;14.70;78.19
46638;BME280;32365;46.938;7.390;2023-05-20T15:36:06;94949.75;;;14.45;77.62
46638;BME280;32365;46.938;7.390;2023-05-20T15:38:33;94960.44;;;14.54;77.52
46638;BME280;32365;46.938;7.390;2023-05-20T15:40:59;94956.25;;;14.63;77.37
46638;BME280;32365;46.938;7.390;2023-05-20T15:43:26;94957.28;;;14.77;76.52
46638;BME280;32365;46.938;7.390;2023-05-20T15:45:54;94945.31;;;14.82;75.99
46638;BME280;32365;46.938;7.390;2023-05-20T15:48:20;94955.94;;;14.96;76.66
46638;BME280;32365;46.938;7.390;2023-05-20T15:50:47;94952.31;;;14.86;77.21
46638;BME280;32365;46.938;7.390;2023-05-20T15:53:14;94946.06;;;14.82;77.33
46638;BME280;32365;46.938;7.390;2023-05-20T15:55:41;94952.81;;;14.93;76.29
46638;BME280;32365;46.938;7.390;2023-05-20T15:58:07;94952.53;;;15.05;75.75
46638;BME280;32365;46.938;7.390;2023-05-20T16:00:34;94946.03;;;14.92;76.20
46638;BME280;32365;46.938;7.390;2023-05-20T16:03:02;94948.38;;;14.99;76.99
46638;BME280;32365;46.938;7.390;2023-05-20T16:05:29;94947.91;;;14.82;76.80
46638;BME280;32365;46.938;7.390;2023-05-20T16:07:55;94943.50;;;14.72;75.30
46638;BME280;32365;46.938;7.390;2023-05-20T16:10:22;94946.06;;;14.82;75.74
46638;BME280;32365;46.938;7.390;2023-05-20T16:12:48;94948.94;;;14.75;75.97
46638;BME280;32365;46.938;7.390;2023-05-20T16:15:15;94958.09;;;14.78;75.97
46638;BME280;32365;46.938;7.390;2023-05-20T16:17:42;94948.16;;;14.85;76.75
46638;BME280;32365;46.938;7.390;2023-05-20T16:20:10;94956.22;;;14.89;75.75
46638;BME280;32365;46.938;7.390;2023-05-20T16:22:36;94955.22;;;14.85;76.39
46638;BME280;32365;46.938;7.390;2023-05-20T16:25:04;94951.84;;;14.79;76.77
46638;BME280;32365;46.938;7.390;2023-05-20T16:27:30;94949.97;;;14.90;75.87
46638;BME280;32365;46.938;7.390;2023-05-20T16:29:57;94955.13;;;15.05;76.99
46638;BME280;32365;46.938;7.390;2023-05-20T16:32:23;94956.72;;;15.01;76.84
46638;BME280;32365;46.938;7.390;2023-05-20T16:34:51;94955.66;;;15.02;77.22
46638;BME280;32365;46.938;7.390;2023-05-20T16:37:20;94941.59;;;15.08;76.33
46638;BME280;32365;46.938;7.390;2023-05-20T16:39:46;94938.69;;;15.15;75.67
46638;BME280;32365;46.938;7.390;2023-05-20T16:42:13;94936.56;;;15.17;76.07
46638;BME280;32365;46.938;7.390;2023-05-20T16:44:39;94941.50;;;15.24;77.17
46638;BME280;32365;46.938;7.390;2023-05-20T16:47:06;94932.91;;;15.23;76.14
46638;BME280;32365;46.938;7.390;2023-05-20T16:49:33;94936.50;;;15.33;75.27
46638;BME280;32365;46.938;7.390;2023-05-20T16:52:00;94941.31;;;15.10;75.94
46638;BME280;32365;46.938;7.390;2023-05-20T16:54:28;94946.19;;;15.32;75.91
46638;BME280;32365;46.938;7.390;2023-05-20T16:56:55;94943.69;;;15.57;75.23
46638;BME280;32365;46.938;7.390;2023-05-20T16:59:21;94943.75;;;15.41;74.93
46638;BME280;32365;46.938;7.390;2023-05-20T17:01:49;94943.09;;;15.20;76.82
46638;BME280;32365;46.938;7.390;2023-05-20T17:04:15;94939.97;;;15.18;76.76
46638;BME280;32365;46.938;7.390;2023-05-20T17:06:42;94940.44;;;15.25;77.18
46638;BME280;32365;46.938;7.390;2023-05-20T17:09:08;94944.28;;;15.43;76.44
46638;BME280;32365;46.938;7.390;2023-05-20T17:11:36;94937.88;;;15.20;76.81
46638;BME280;32365;46.938;7.390;2023-05-20T17:14:02;94922.38;;;15.44;76.64
46638;BME280;32365;46.938;7.390;2023-05-20T17:16:29;94935.84;;;15.62;76.23
46638;BME280;32365;46.938;7.390;2023-05-20T17:18:55;94940.06;;;15.52;75.71
46638;BME280;32365;46.938;7.390;2023-05-20T17:21:22;94940.16;;;15.32;76.46
46638;BME280;32365;46.938;7.390;2023-05-20T17:23:49;94944.94;;;15.14;77.21
46638;BME280;32365;46.938;7.390;2023-05-20T17:26:16;94939.97;;;15.18;77.83
46638;BME280;32365;46.938;7.390;2023-05-20T17:28:44;94942.94;;;14.90;78.22
46638;BME280;32365;46.938;7.390;2023-05-20T17:31:10;94939.53;;;14.90;78.49
46638;BME280;32365;46.938;7.390;2023-05-20T17:33:36;94930.94;;;14.89;78.38
46638;BME280;32365;46.938;7.390;2023-05-20T17:36:04;94943.91;;;15.05;77.95
46638;BME280;32365;46.938;7.390;2023-05-20T17:38:30;94946.38;;;14.70;78.70
46638;BME280;32365;46.938;7.390;2023-05-20T17:40:57;94946.06;;;14.87;78.73
46638;BME280;32365;46.938;7.390;2023-05-20T17:43:23;94951.78;;;14.95;79.53
46638;BME280;32365;46.938;7.390;2023-05-20T17:45:51;94950.53;;;14.71;79.21
46638;BME280;32365;46.938;7.390;2023-05-20T17:48:18;94959.66;;;14.74;79.61
46638;BME280;32365;46.938;7.390;2023-05-20T17:50:44;94957.81;;;14.74;80.38
46638;BME280;32365;46.938;7.390;2023-05-20T17:53:11;94957.81;;;14.54;81.21
46638;BME280;32365;46.938;7.390;2023-05-20T17:55:37;94947.94;;;14.45;82.10
46638;BME280;32365;46.938;7.390;2023-05-20T17:58:04;94950.78;;;14.44;81.27
46638;BME280;32365;46.938;7.390;2023-05-20T18:00:31;94938.06;;;14.32;81.63
46638;BME280;32365;46.938;7.390;2023-05-20T18:02:59;94938.06;;;14.22;82.52
46638;BME280;32365;46.938;7.390;2023-05-20T18:05:26;94929.22;;;14.33;82.20
46638;BME280;32365;46.938;7.390;2023-05-20T18:07:52;94927.13;;;14.30;82.20
46638;BME280;32365;46.938;7.390;2023-05-20T18:10:19;94932.06;;;14.11;84.29
46638;BME280;32365;46.938;7.390;2023-05-20T18:12:45;94939.34;;;14.09;84.26
46638;BME280;32365;46.938;7.390;2023-05-20T18:15:12;94939.59;;;14.02;84.86
46638;BME280;32365;46.938;7.390;2023-05-20T18:17:41;94936.25;;;14.01;84.80
46638;BME280;32365;46.938;7.390;2023-05-20T18:20:11;94936.25;;;14.01;85.03
46638;BME280;32365;46.938;7.390;2023-05-20T18:22:38;94934.66;;;13.85;85.92
46638;BME280;32365;46.938;7.390;2023-05-20T18:25:09;94943.25;;;13.80;86.56
46638;BME280;32365;46.938;7.390;2023-05-20T18:27:36;94940.13;;;13.73;86.76
46638;BME280;32365;46.938;7.390;2023-05-20T18:30:03;94947.13;;;13.67;86.63
46638;BME280;32365;46.938;7.390;2023-05-20T18:32:30;94948.94;;;13.67;86.85
46638;BME280;32365;46.938;7.390;2023-05-20T18:34:56;94953.84;;;13.53;87.91
46638;BME280;32365;46.938;7.390;2023-05-20T18:37:24;94949.72;;;13.57;88.04
46638;BME280;32365;46.938;7.390;2023-05-20T18:39:51;94955.94;;;13.51;88.28
46638;BME280;32365;46.938;7.390;2023-05-20T18:42:18;94950.41;;;13.37;89.25
46638;BME280;32365;46.938;7.390;2023-05-20T18:44:45;94943.34;;;13.27;90.21
46638;BME280;32365;46.938;7.390;2023-05-20T18:47:12;94943.03;;;13.18;90.74
46638;BME280;32365;46.938;7.390;2023-05-20T18:49:38;94941.75;;;13.16;90.69
46638;BME280;32365;46.938;7.390;2023-05-20T18:52:05;94943.28;;;13.12;91.50
46638;BME280;32365;46.938;7.390;2023-05-20T18:54:33;94945.63;;;13.08;91.74
46638;BME280;32365;46.938;7.390;2023-05-20T18:57:00;94951.59;;;13.08;91.45
46638;BME280;32365;46.938;7.390;2023-05-20T18:59:28;94945.13;;;13.11;92.01
46638;BME280;32365;46.938;7.390;2023-05-20T19:01:55;94946.66;;;13.07;92.08
46638;BME280;32365;46.938;7.390;2023-05-20T19:04:22;94941.97;;;13.09;92.45
46638;BME280;32365;46.938;7.390;2023-05-20T19:06:49;94941.75;;;13.16;91.57
46638;BME280;32365;46.938;7.390;2023-05-20T19:09:16;94944.09;;;13.12;91.78
46638;BME280;32365;46.938;7.390;2023-05-20T19:11:44;94943.59;;;13.15;91.44
46638;BME280;32365;46.938;7.390;2023-05-20T19:14:10;94937.81;;;13.03;92.04
46638;BME280;32365;46.938;7.390;2023-05-20T19:16:37;94941.16;;;12.98;93.01
46638;BME280;32365;46.938;7.390;2023-05-20T19:19:04;94939.25;;;12.83;93.45
46638;BME280;32365;46.938;7.390;2023-05-20T19:21:31;94940.59;;;12.86;93.60
46638;BME280;32365;46.938;7.390;2023-05-20T19:23:57;94946.28;;;12.83;93.59
46638;BME280;32365;46.938;7.390;2023-05-20T19:26:24;94947.03;;;12.78;93.95
46638;BME280;32365;46.938;7.390;2023-05-20T19:28:52;94949.38;;;12.74;93.79
46638;BME280;32365;46.938;7.390;2023-05-20T19:31:19;94958.19;;;12.73;94.07
46638;BME280;32365;46.938;7.390;2023-05-20T19:33:46;94954.47;;;12.64;95.23
46638;BME280;32365;46.938;7.390;2023-05-20T19:36:12;94969.50;;;12.57;95.65
46638;BME280;32365;46.938;7.390;2023-05-20T19:38:39;94963.22;;;12.47;96.19
46638;BME280;32365;46.938;7.390;2023-05-20T19:41:05;94963.44;;;12.41;96.95
46638;BME280;32365;46.938;7.390;2023-05-20T19:43:32;94972.44;;;12.33;97.18
46638;BME280;32365;46.938;7.390;2023-05-20T19:46:00;94967.25;;;12.33;97.44
46638;BME280;32365;46.938;7.390;2023-05-20T19:48:26;94962.13;;;12.38;96.74
46638;BME280;32365;46.938;7.390;2023-05-20T19:50:53;94968.03;;;12.34;97.12
46638;BME280;32365;46.938;7.390;2023-05-20T19:53:19;94968.00;;;12.28;97.34
46638;BME280;32365;46.938;7.390;2023-05-20T19:55:46;94968.75;;;12.24;97.79
46638;BME280;32365;46.938;7.390;2023-05-20T19:58:12;94969.72;;;12.12;98.13
46638;BME280;32365;46.938;7.390;2023-05-20T20:00:39;94967.34;;;12.11;98.96
46638;BME280;32365;46.938;7.390;2023-05-20T20:03:06;94968.75;;;11.96;99.39
46638;BME280;32365;46.938;7.390;2023-05-20T20:05:33;94968.44;;;11.93;99.67
46638;BME280;32365;46.938;7.390;2023-05-20T20:08:00;94965.84;;;11.93;100.00
46638;BME280;32365;46.938;7.390;2023-05-20T20:10:27;94965.38;;;11.96;99.58
46638;BME280;32365;46.938;7.390;2023-05-20T20:12:54;94966.84;;;12.14;98.32
46638;BME280;32365;46.938;7.390;2023-05-20T20:15:21;94962.34;;;12.04;98.11
46638;BME280;32365;46.938;7.390;2023-05-20T20:17:49;94961.75;;;11.97;98.93
46638;BME280;32365;46.938;7.390;2023-05-20T20:20:18;94965.56;;;11.89;99.42
46638;BME280;32365;46.938;7.390;2023-05-20T20:22:45;94965.28;;;11.85;100.00
46638;BME280;32365;46.938;7.390;2023-05-20T20:25:12;94959.56;;;11.83;100.00
46638;BME280;32365;46.938;7.390;2023-05-20T20:27:39;94955.66;;;11.81;100.00
46638;BME280;32365;46.938;7.390;2023-05-20T20:30:08;94960.22;;;11.74;100.00
